SWR180A LSZH-VTBS
Flight info
| Callsign | SWR180A |
|---|---|
| Flight time | N/A |
| Altitude | 33000 |
| Route | DEGES Z2 UMVEG DCT DIMLO DCT TEGRI DCT VEVIN DCT DINRO DCT UDROS/N0482F350 UM859 KARDE UN644 ROLIN DCT TETRO DCT BARAD M747 LUSAL N701 LARGI B701 TUGTA A909 LEMOD N644 DOBAT/N0485F370 N644 DI A466 SULOM M890 LKN R460 CEA L507 IGONI DCT WILLA WILLA1C |
| Aircraft | B77W/H-SDE1E2E3FGHIJ2J3J4J5M1RWXY/LB1D1 |
Departure
| Time | 2026-04-25 20:56 |
|---|---|
| Airport | Zürich Airport (LSZH) |
Arrival
| Time | N/A |
|---|---|
| Airport | Suvarnabhumi Airport (VTBS) |
| Time | Latitude | Longitude | Altitude | Speed | Heading |
|---|---|---|---|---|---|
| 2026-04-25 20:26 | 47.46057 | 8.55433 | 1403 ft | 0 kts | 6° |
| 2026-04-25 20:29 | 47.46058 | 8.55433 | 1403 ft | 0 kts | 6° |
| 2026-04-25 20:47 | 47.46040 | 8.55430 | 1409 ft | 4 kts | 6° |
| 2026-04-25 20:47 | 47.46013 | 8.55426 | 1410 ft | 4 kts | 6° |
| 2026-04-25 20:47 | 47.45992 | 8.55423 | 1412 ft | 4 kts | 15° |
| 2026-04-25 20:47 | 47.45977 | 8.55415 | 1413 ft | 4 kts | 59° |
| 2026-04-25 20:48 | 47.45974 | 8.55390 | 1412 ft | 4 kts | 96° |
| 2026-04-25 20:48 | 47.45976 | 8.55352 | 1410 ft | 4 kts | 96° |
| 2026-04-25 20:48 | 47.45979 | 8.55312 | 1410 ft | 4 kts | 96° |
| 2026-04-25 20:48 | 47.45980 | 8.55301 | 1408 ft | 0 kts | 96° |
| 2026-04-25 20:52 | 47.45980 | 8.55303 | 1408 ft | 1 kts | 96° |
| 2026-04-25 20:53 | 47.45977 | 8.55333 | 1410 ft | 4 kts | 96° |
| 2026-04-25 20:53 | 47.45974 | 8.55373 | 1412 ft | 4 kts | 97° |
| 2026-04-25 20:53 | 47.45970 | 8.55429 | 1413 ft | 8 kts | 96° |
| 2026-04-25 20:53 | 47.45961 | 8.55547 | 1411 ft | 15 kts | 96° |
| 2026-04-25 20:54 | 47.45949 | 8.55725 | 1417 ft | 20 kts | 96° |
| 2026-04-25 20:54 | 47.45932 | 8.55958 | 1417 ft | 25 kts | 96° |
| 2026-04-25 20:54 | 47.45915 | 8.56208 | 1416 ft | 11 kts | 96° |
| 2026-04-25 20:54 | 47.45958 | 8.56306 | 1422 ft | 16 kts | 19° |
| 2026-04-25 20:55 | 47.46091 | 8.56342 | 1421 ft | 23 kts | 6° |
| 2026-04-25 20:55 | 47.46250 | 8.56282 | 1420 ft | 27 kts | 319° |
| 2026-04-25 20:55 | 47.46466 | 8.55988 | 1413 ft | 69 kts | 317° |
| 2026-04-25 20:55 | 47.47001 | 8.55258 | 1401 ft | 138 kts | 317° |
| 2026-04-25 20:56 | 47.47841 | 8.54123 | 1551 ft | 173 kts | 317° |
| 2026-04-25 20:56 | 47.48702 | 8.52939 | 2291 ft | 168 kts | 319° |
| 2026-04-25 20:56 | 47.49635 | 8.51873 | 2924 ft | 170 kts | 330° |
| 2026-04-25 20:56 | 47.50662 | 8.50973 | 3518 ft | 172 kts | 330° |
| 2026-04-25 20:57 | 47.51689 | 8.50018 | 3983 ft | 177 kts | 332° |
| 2026-04-25 20:57 | 47.52715 | 8.48997 | 4377 ft | 182 kts | 316° |
| 2026-04-25 20:57 | 47.53425 | 8.47424 | 4698 ft | 194 kts | 291° |
| 2026-04-25 20:57 | 47.53647 | 8.45375 | 4821 ft | 212 kts | 267° |
| 2026-04-25 20:58 | 47.53320 | 8.43151 | 4944 ft | 232 kts | 249° |
| 2026-04-25 20:58 | 47.52617 | 8.40880 | 5237 ft | 252 kts | 244° |
| 2026-04-25 20:58 | 47.51778 | 8.38520 | 5656 ft | 263 kts | 236° |
| 2026-04-25 20:58 | 47.50408 | 8.36747 | 6142 ft | 269 kts | 201° |
| 2026-04-25 20:59 | 47.48569 | 8.36353 | 6930 ft | 272 kts | 173° |
| 2026-04-25 20:59 | 47.46755 | 8.37238 | 7490 ft | 281 kts | 147° |
| 2026-04-25 20:59 | 47.45348 | 8.39257 | 8100 ft | 287 kts | 123° |
| 2026-04-25 20:59 | 47.44688 | 8.42026 | 8739 ft | 290 kts | 91° |
| 2026-04-25 21:00 | 47.45054 | 8.44917 | 9380 ft | 289 kts | 70° |
| 2026-04-25 21:00 | 47.45279 | 8.45915 | 9543 ft | 291 kts | 73° |
| 2026-04-25 21:00 | 47.45587 | 8.53952 | 10671 ft | 319 kts | 91° |
| 2026-04-25 21:01 | 47.45440 | 8.57349 | 10851 ft | 342 kts | 94° |
| 2026-04-25 21:01 | 47.45197 | 8.60972 | 11045 ft | 366 kts | 95° |
| 2026-04-25 21:01 | 47.44922 | 8.64785 | 11450 ft | 381 kts | 95° |
| 2026-04-25 21:01 | 47.44645 | 8.68722 | 12098 ft | 390 kts | 95° |
| 2026-04-25 21:02 | 47.44373 | 8.72740 | 12950 ft | 393 kts | 94° |
| 2026-04-25 21:02 | 47.44111 | 8.76773 | 13844 ft | 396 kts | 94° |
| 2026-04-25 21:02 | 47.43848 | 8.80844 | 14570 ft | 401 kts | 94° |
| 2026-04-25 21:02 | 47.43584 | 8.84971 | 15284 ft | 406 kts | 94° |
| 2026-04-25 21:03 | 47.43322 | 8.89150 | 16057 ft | 411 kts | 93° |
| 2026-04-25 21:03 | 47.43054 | 8.93371 | 16812 ft | 415 kts | 93° |
| 2026-04-25 21:03 | 47.42782 | 8.97635 | 17518 ft | 419 kts | 93° |
| 2026-04-25 21:03 | 47.42593 | 9.01943 | 18243 ft | 423 kts | 89° |
| 2026-04-25 21:04 | 47.42526 | 9.06303 | 18876 ft | 427 kts | 88° |
| 2026-04-25 21:04 | 47.42501 | 9.10701 | 19504 ft | 430 kts | 88° |
| 2026-04-25 21:04 | 47.42481 | 9.15146 | 20111 ft | 435 kts | 87° |
| 2026-04-25 21:04 | 47.42451 | 9.19625 | 20718 ft | 439 kts | 87° |
| 2026-04-25 21:05 | 47.42408 | 9.24159 | 21313 ft | 443 kts | 87° |
| 2026-04-25 21:05 | 47.42354 | 9.28741 | 21889 ft | 448 kts | 87° |
| 2026-04-25 21:05 | 47.42290 | 9.33366 | 22491 ft | 452 kts | 87° |
| 2026-04-25 21:05 | 47.42222 | 9.38029 | 23063 ft | 456 kts | 87° |
| 2026-04-25 21:06 | 47.42150 | 9.42726 | 23633 ft | 461 kts | 87° |
| 2026-04-25 21:06 | 47.42071 | 9.47474 | 24083 ft | 464 kts | 87° |
| 2026-04-25 21:06 | 47.41991 | 9.52250 | 24156 ft | 468 kts | 87° |
| 2026-04-25 21:06 | 47.41937 | 9.55429 | 24158 ft | 467 kts | 87° |
| 2026-04-25 21:07 | 47.41829 | 9.61741 | 24156 ft | 465 kts | 88° |
| 2026-04-25 21:07 | 47.41741 | 9.66530 | 24152 ft | 464 kts | 88° |
| 2026-04-25 21:07 | 47.41652 | 9.71284 | 24154 ft | 463 kts | 88° |
| 2026-04-25 21:07 | 47.41565 | 9.76044 | 24158 ft | 463 kts | 88° |
| 2026-04-25 21:08 | 47.41476 | 9.80796 | 24150 ft | 463 kts | 88° |
| 2026-04-25 21:08 | 47.41385 | 9.85554 | 24157 ft | 463 kts | 88° |
| 2026-04-25 21:08 | 47.41290 | 9.90343 | 24151 ft | 464 kts | 88° |
| 2026-04-25 21:08 | 47.41195 | 9.95094 | 24401 ft | 468 kts | 88° |
| 2026-04-25 21:09 | 47.40996 | 10.04731 | 25461 ft | 472 kts | 88° |
| 2026-04-25 21:09 | 47.40894 | 10.09580 | 25923 ft | 475 kts | 88° |
| 2026-04-25 21:09 | 47.40788 | 10.14463 | 26337 ft | 478 kts | 88° |
| 2026-04-25 21:10 | 47.40751 | 10.16125 | 26459 ft | 479 kts | 88° |
| 2026-04-25 21:10 | 47.40687 | 10.19040 | 26724 ft | 481 kts | 89° |
| 2026-04-25 21:10 | 47.40576 | 10.23956 | 27146 ft | 485 kts | 89° |
| 2026-04-25 21:11 | 47.40460 | 10.28930 | 27572 ft | 488 kts | 89° |
| 2026-04-25 21:11 | 47.40342 | 10.33957 | 28029 ft | 490 kts | 89° |
| 2026-04-25 21:11 | 47.40222 | 10.38999 | 28429 ft | 493 kts | 89° |
| 2026-04-25 21:11 | 47.40097 | 10.44064 | 28781 ft | 496 kts | 89° |
| 2026-04-25 21:12 | 47.39869 | 10.49163 | 29130 ft | 500 kts | 94° |
| 2026-04-25 21:12 | 47.39267 | 10.54250 | 29470 ft | 505 kts | 99° |
| 2026-04-25 21:12 | 47.38511 | 10.59326 | 29799 ft | 508 kts | 99° |
| 2026-04-25 21:12 | 47.38012 | 10.62705 | 30006 ft | 510 kts | 99° |
| 2026-04-25 21:13 | 47.37023 | 10.69554 | 30460 ft | 510 kts | 99° |
| 2026-04-25 21:13 | 47.36309 | 10.74595 | 30865 ft | 509 kts | 99° |
| 2026-04-25 21:13 | 47.35591 | 10.79703 | 31274 ft | 507 kts | 99° |
| 2026-04-25 21:13 | 47.34877 | 10.84784 | 31578 ft | 507 kts | 99° |
| 2026-04-25 21:14 | 47.34248 | 10.89278 | 31891 ft | 507 kts | 99° |
| 2026-04-25 21:14 | 47.33533 | 10.94363 | 32209 ft | 506 kts | 99° |
| 2026-04-25 21:14 | 47.32812 | 10.99447 | 32433 ft | 507 kts | 99° |
| 2026-04-25 21:14 | 47.32089 | 11.04534 | 32744 ft | 506 kts | 99° |
| 2026-04-25 21:15 | 47.31368 | 11.09598 | 33054 ft | 506 kts | 99° |
| 2026-04-25 21:15 | 47.30639 | 11.14692 | 33103 ft | 509 kts | 99° |
| 2026-04-25 21:15 | 47.29172 | 11.24880 | 33122 ft | 506 kts | 100° |
| 2026-04-25 21:16 | 47.27708 | 11.34990 | 33129 ft | 504 kts | 100° |
| 2026-04-25 21:16 | 47.26241 | 11.45062 | 33133 ft | 503 kts | 100° |
| 2026-04-25 21:17 | 47.24886 | 11.55158 | 33129 ft | 502 kts | 96° |
| 2026-04-25 21:17 | 47.23827 | 11.65321 | 33129 ft | 503 kts | 96° |
| 2026-04-25 21:18 | 47.22971 | 11.75504 | 33119 ft | 502 kts | 93° |
| 2026-04-25 21:18 | 47.22393 | 11.85752 | 33117 ft | 502 kts | 92° |
| 2026-04-25 21:19 | 47.21821 | 11.96002 | 33100 ft | 503 kts | 92° |
| 2026-04-25 21:19 | 47.21196 | 12.06247 | 33105 ft | 503 kts | 93° |
| 2026-04-25 21:20 | 47.20760 | 12.13027 | 33110 ft | 503 kts | 93° |
| 2026-04-25 21:20 | 47.19859 | 12.26735 | 33108 ft | 503 kts | 93° |
| 2026-04-25 21:21 | 47.19177 | 12.36946 | 33114 ft | 501 kts | 93° |
| 2026-04-25 21:21 | 47.18491 | 12.47147 | 33105 ft | 501 kts | 93° |
| 2026-04-25 21:22 | 47.17798 | 12.57327 | 33101 ft | 500 kts | 93° |
| 2026-04-25 21:22 | 47.17099 | 12.67443 | 33116 ft | 500 kts | 93° |
| 2026-04-25 21:23 | 47.16389 | 12.77592 | 33105 ft | 500 kts | 93° |
| 2026-04-25 21:23 | 47.15669 | 12.87754 | 33094 ft | 500 kts | 93° |
| 2026-04-25 21:24 | 47.14941 | 12.97903 | 33103 ft | 499 kts | 93° |
| 2026-04-25 21:24 | 47.14202 | 13.08045 | 33104 ft | 499 kts | 93° |
| 2026-04-25 21:25 | 47.13455 | 13.18185 | 33094 ft | 499 kts | 93° |
| 2026-04-25 21:25 | 47.12699 | 13.28332 | 33104 ft | 500 kts | 94° |
| 2026-04-25 21:26 | 47.11936 | 13.38472 | 33103 ft | 500 kts | 94° |
| 2026-04-25 21:26 | 47.11165 | 13.48596 | 33079 ft | 499 kts | 94° |
| 2026-04-25 21:27 | 47.10382 | 13.58718 | 33100 ft | 498 kts | 94° |
| 2026-04-25 21:27 | 47.09592 | 13.68821 | 33068 ft | 498 kts | 94° |
| 2026-04-25 21:28 | 47.08929 | 13.77202 | 33080 ft | 498 kts | 94° |
| 2026-04-25 21:28 | 47.08124 | 13.87272 | 33076 ft | 497 kts | 94° |
| 2026-04-25 21:29 | 47.07311 | 13.97363 | 33076 ft | 498 kts | 94° |
| 2026-04-25 21:29 | 47.06355 | 14.09082 | 33075 ft | 498 kts | 94° |
| 2026-04-25 21:30 | 47.05660 | 14.17516 | 33066 ft | 497 kts | 95° |
| 2026-04-25 21:30 | 47.04962 | 14.25889 | 33074 ft | 497 kts | 95° |
| 2026-04-25 21:31 | 47.03970 | 14.37654 | 33058 ft | 497 kts | 95° |